Time;durP1;ratioP1;P1;durP2;ratioP2;P2;SDS_P1;SDS_P2;PMS_P1;PMS_P2;Temp;Humidity;BMP_temperature;BMP_pressure;BME280_temperature;BME280_humidity;BME280_pressure;Samples;Min_cycle;Max_cycle;Signal;HPM_P1;HPM_P2
2021/09/23 00:02:24;;;;;;;;;;;13.70;99.90;;;;;;5053246;28;20323;-77
2021/09/23 00:04:50;;;;;;;;;;;13.80;99.90;;;;;;5050592;28;19952;-77
2021/09/23 00:07:15;;;;;;;;;;;13.70;99.90;;;;;;5055803;28;19963;-76
2021/09/23 00:09:41;;;;;;;;;;;13.70;99.90;;;;;;5060005;28;19920;-76
2021/09/23 00:12:07;;;;;;;;;;;13.70;99.90;;;;;;5058769;28;20255;-73
2021/09/23 00:14:32;;;;;;;;;;;13.70;99.90;;;;;;5031044;28;19921;-77
2021/09/23 00:16:58;;;;;;;;;;;13.70;99.90;;;;;;5053653;28;19913;-77
2021/09/23 00:19:24;;;;;;;;;;;13.70;99.90;;;;;;5031446;28;19916;-77
2021/09/23 00:21:49;;;;;;;;;;;13.70;99.90;;;;;;5052146;28;19913;-78
2021/09/23 00:24:15;;;;;;;;;;;13.70;99.90;;;;;;5049075;28;19948;-77
2021/09/23 00:26:40;;;;;;;;;;;13.60;99.90;;;;;;5054490;28;20271;-77
2021/09/23 00:29:06;;;;;;;;;;;13.60;99.90;;;;;;5057362;28;19916;-77
2021/09/23 00:31:32;;;;;;;;;;;13.60;99.90;;;;;;5054807;28;19916;-76
2021/09/23 00:33:58;;;;;;;;;;;13.60;99.90;;;;;;5055560;28;19923;-75
2021/09/23 00:36:23;;;;;;;;;;;13.60;99.90;;;;;;5046631;28;19992;-76
2021/09/23 00:38:49;;;;;;;;;;;13.60;99.90;;;;;;5055799;28;19920;-75
2021/09/23 00:41:15;;;;;;;;;;;13.50;99.90;;;;;;5055299;28;19917;-77
2021/09/23 00:43:40;;;;;;;;;;;13.50;99.90;;;;;;5057688;28;19950;-77
2021/09/23 00:46:06;;;;;;;;;;;13.50;99.90;;;;;;5038061;28;20588;-77
2021/09/23 00:48:32;;;;;;;;;;;13.40;99.90;;;;;;5055631;28;20748;-77
2021/09/23 00:50:58;;;;;;;;;;;13.40;99.90;;;;;;5037699;28;20018;-76
2021/09/23 00:53:25;;;;;;;;;;;13.40;99.90;;;;;;5053681;28;20407;-78
2021/09/23 00:55:50;;;;;;;;;;;13.40;99.90;;;;;;5055853;28;19951;-76
2021/09/23 00:58:16;;;;;;;;;;;13.30;99.90;;;;;;5046964;28;20727;-78
2021/09/23 01:00:42;;;;;;;;;;;13.30;99.90;;;;;;5049462;28;19913;-78
2021/09/23 01:03:09;;;;;;;;;;;13.30;99.90;;;;;;5060377;28;19916;-73
2021/09/23 01:05:35;;;;;;;;;;;13.30;99.90;;;;;;5055199;28;19917;-76
2021/09/23 01:08:01;;;;;;;;;;;13.40;99.90;;;;;;5060503;28;19955;-76
2021/09/23 01:10:26;;;;;;;;;;;13.40;99.90;;;;;;5054972;28;19927;-77
2021/09/23 01:12:52;;;;;;;;;;;13.40;99.90;;;;;;5054891;28;19909;-76
2021/09/23 01:15:18;;;;;;;;;;;13.40;99.90;;;;;;5056186;28;19908;-75
2021/09/23 01:17:44;;;;;;;;;;;13.40;99.90;;;;;;5037550;28;19920;-77
2021/09/23 01:20:10;;;;;;;;;;;13.40;99.90;;;;;;5055390;28;20281;-76
2021/09/23 01:22:36;;;;;;;;;;;13.30;99.90;;;;;;4958918;28;2716653;-76
2021/09/23 01:25:04;;;;;;;;;;;13.40;99.90;;;;;;5056179;28;19921;-76
2021/09/23 01:27:30;;;;;;;;;;;13.30;99.90;;;;;;5056080;28;19959;-77
2021/09/23 01:29:56;;;;;;;;;;;13.30;99.90;;;;;;5051210;28;19988;-77
2021/09/23 01:32:23;;;;;;;;;;;13.30;99.90;;;;;;5032479;28;19917;-77
2021/09/23 01:34:48;;;;;;;;;;;13.30;99.90;;;;;;5055964;28;20231;-77
2021/09/23 01:37:14;;;;;;;;;;;13.30;99.90;;;;;;5056023;28;19920;-77
2021/09/23 01:39:40;;;;;;;;;;;13.30;99.90;;;;;;5053106;28;19924;-76
2021/09/23 01:42:06;;;;;;;;;;;13.30;99.90;;;;;;5037846;28;20367;-76
2021/09/23 01:44:31;;;;;;;;;;;13.30;99.90;;;;;;5051525;28;20197;-76
2021/09/23 01:46:57;;;;;;;;;;;13.30;99.90;;;;;;5048486;28;19999;-75
2021/09/23 01:49:23;;;;;;;;;;;13.30;99.90;;;;;;5054761;28;19909;-76
2021/09/23 01:51:48;;;;;;;;;;;13.30;99.90;;;;;;5037880;28;19909;-76
2021/09/23 01:54:15;;;;;;;;;;;13.30;99.90;;;;;;5055036;28;19913;-78
2021/09/23 01:56:42;;;;;;;;;;;13.30;99.90;;;;;;5038069;28;20343;-77
2021/09/23 01:59:08;;;;;;;;;;;13.30;99.90;;;;;;5055423;28;19955;-76
2021/09/23 02:01:34;;;;;;;;;;;13.30;99.90;;;;;;5069303;28;19908;-78
2021/09/23 02:03:59;;;;;;;;;;;13.30;99.90;;;;;;5038104;28;19913;-77
2021/09/23 02:06:25;;;;;;;;;;;13.30;99.90;;;;;;5054739;28;20300;-77
2021/09/23 02:08:51;;;;;;;;;;;13.40;99.90;;;;;;5050846;28;19913;-77
2021/09/23 02:11:16;;;;;;;;;;;13.40;99.90;;;;;;5048502;28;20294;-77
2021/09/23 02:13:42;;;;;;;;;;;13.40;99.90;;;;;;5054866;28;19917;-78
2021/09/23 02:16:08;;;;;;;;;;;13.50;99.90;;;;;;5055664;28;19932;-78
2021/09/23 02:18:34;;;;;;;;;;;13.50;99.90;;;;;;5056434;28;20323;-77
2021/09/23 02:20:59;;;;;;;;;;;13.50;99.90;;;;;;5055129;28;20073;-77
2021/09/23 02:23:25;;;;;;;;;;;13.50;99.90;;;;;;5055755;28;19921;-78
2021/09/23 02:25:51;;;;;;;;;;;13.50;99.90;;;;;;5026439;28;19917;-77
2021/09/23 02:28:17;;;;;;;;;;;13.50;99.90;;;;;;5045456;28;20006;-75
2021/09/23 02:30:42;;;;;;;;;;;13.50;99.90;;;;;;5054482;28;19921;-76
2021/09/23 02:33:08;;;;;;;;;;;13.50;99.90;;;;;;5054316;28;20648;-75
2021/09/23 02:35:33;;;;;;;;;;;13.50;99.90;;;;;;5054773;28;19913;-78
2021/09/23 02:38:01;;;;;;;;;;;13.50;99.90;;;;;;5054735;28;19909;-76
2021/09/23 02:40:27;;;;;;;;;;;13.50;99.90;;;;;;5054430;28;19974;-72
2021/09/23 02:42:52;;;;;;;;;;;13.50;99.90;;;;;;5055316;28;19917;-77
2021/09/23 02:45:18;;;;;;;;;;;13.50;99.90;;;;;;5053611;28;19913;-76
2021/09/23 02:47:44;;;;;;;;;;;13.50;99.90;;;;;;5035351;28;19991;-77
2021/09/23 02:50:10;;;;;;;;;;;13.50;99.90;;;;;;5054555;28;20319;-76
2021/09/23 02:52:35;;;;;;;;;;;13.50;99.90;;;;;;5054670;28;19912;-77
2021/09/23 02:55:01;;;;;;;;;;;13.50;99.90;;;;;;5054707;28;19909;-76
2021/09/23 02:57:27;;;;;;;;;;;13.50;99.90;;;;;;5035397;28;19917;-76
2021/09/23 02:59:52;;;;;;;;;;;13.60;99.90;;;;;;5054241;28;19913;-78
2021/09/23 03:02:18;;;;;;;;;;;13.60;99.90;;;;;;5043113;28;19920;-75
2021/09/23 03:04:43;;;;;;;;;;;13.60;99.90;;;;;;5052598;28;20315;-76
2021/09/23 03:07:09;;;;;;;;;;;13.50;99.90;;;;;;5061094;28;20370;-76
2021/09/23 03:09:35;;;;;;;;;;;13.50;99.90;;;;;;5058302;28;19924;-76
2021/09/23 03:12:02;;;;;;;;;;;13.50;99.90;;;;;;5054024;28;20043;-77
2021/09/23 03:14:27;;;;;;;;;;;13.40;99.90;;;;;;5035850;28;19917;-73
2021/09/23 03:16:53;;;;;;;;;;;13.40;99.90;;;;;;5033783;28;19924;-77
2021/09/23 03:19:18;;;;;;;;;;;13.40;99.90;;;;;;5055748;28;19970;-76
2021/09/23 03:21:44;;;;;;;;;;;13.30;99.90;;;;;;5040269;28;20312;-76
2021/09/23 03:24:10;;;;;;;;;;;13.30;99.90;;;;;;5054019;28;19921;-78
2021/09/23 03:26:36;;;;;;;;;;;13.30;99.90;;;;;;5073322;28;19947;-77
2021/09/23 03:29:02;;;;;;;;;;;13.20;99.90;;;;;;5036253;28;19948;-76
2021/09/23 03:31:28;;;;;;;;;;;13.20;99.90;;;;;;5060846;28;20373;-78
2021/09/23 03:33:53;;;;;;;;;;;13.20;99.90;;;;;;5054127;28;19921;-76
2021/09/23 03:36:19;;;;;;;;;;;13.10;99.90;;;;;;5058480;28;19995;-76
2021/09/23 03:38:45;;;;;;;;;;;13.10;99.90;;;;;;5045737;28;19913;-76
2021/09/23 03:41:10;;;;;;;;;;;13.10;99.90;;;;;;5050363;28;19913;-76
2021/09/23 03:43:36;;;;;;;;;;;13.10;99.90;;;;;;5026657;28;19953;-76
2021/09/23 03:46:05;;;;;;;;;;;13.00;99.90;;;;;;5038311;28;20312;-74
2021/09/23 03:48:31;;;;;;;;;;;13.10;99.90;;;;;;5036657;28;19913;-76
2021/09/23 03:50:58;;;;;;;;;;;13.10;99.90;;;;;;5051854;28;19935;-78
2021/09/23 03:53:24;;;;;;;;;;;13.00;99.90;;;;;;5025966;28;20269;-77
2021/09/23 03:55:49;;;;;;;;;;;13.10;99.90;;;;;;5047802;28;19923;-76
2021/09/23 03:58:15;;;;;;;;;;;13.10;99.90;;;;;;5043957;28;19925;-77
2021/09/23 04:00:41;;;;;;;;;;;13.10;99.90;;;;;;5043965;28;19920;-77
2021/09/23 04:03:06;;;;;;;;;;;13.10;99.90;;;;;;5036269;28;19970;-76
2021/09/23 04:05:32;;;;;;;;;;;13.10;99.90;;;;;;5039959;28;20448;-76
2021/09/23 04:07:57;;;;;;;;;;;13.10;99.90;;;;;;5048552;28;20327;-76
2021/09/23 04:10:23;;;;;;;;;;;13.10;99.90;;;;;;5043457;28;19913;-76
2021/09/23 04:12:52;;;;;;;;;;;13.20;99.90;;;;;;5031398;28;19920;-76
2021/09/23 04:15:17;;;;;;;;;;;13.10;99.90;;;;;;5045136;28;19927;-76
2021/09/23 04:17:43;;;;;;;;;;;13.10;99.90;;;;;;5050602;28;20275;-77
2021/09/23 04:20:09;;;;;;;;;;;13.10;99.90;;;;;;5043684;28;19913;-76
2021/09/23 04:22:34;;;;;;;;;;;13.20;99.90;;;;;;5043318;28;20374;-77
2021/09/23 04:25:00;;;;;;;;;;;13.10;99.90;;;;;;5048726;28;19923;-77
2021/09/23 04:27:26;;;;;;;;;;;13.20;99.90;;;;;;5052785;28;20319;-76
2021/09/23 04:29:51;;;;;;;;;;;13.20;99.90;;;;;;5064464;28;20215;-76
2021/09/23 04:32:17;;;;;;;;;;;13.20;99.90;;;;;;5059834;28;19917;-75
2021/09/23 04:34:42;;;;;;;;;;;13.10;99.90;;;;;;5039378;28;19912;-76
2021/09/23 04:37:08;;;;;;;;;;;13.10;99.90;;;;;;5056937;28;19940;-77
2021/09/23 04:39:34;;;;;;;;;;;13.10;99.90;;;;;;5057506;28;19908;-77
2021/09/23 04:41:59;;;;;;;;;;;13.10;99.90;;;;;;5057321;28;19942;-78
2021/09/23 04:44:25;;;;;;;;;;;13.10;99.90;;;;;;5039313;28;19977;-77
2021/09/23 04:46:51;;;;;;;;;;;13.10;99.90;;;;;;5050519;28;19923;-76
2021/09/23 04:49:17;;;;;;;;;;;13.10;99.90;;;;;;5057014;28;19963;-75
2021/09/23 04:51:43;;;;;;;;;;;13.20;99.90;;;;;;5057090;28;19955;-77
2021/09/23 04:54:08;;;;;;;;;;;13.20;99.90;;;;;;5056418;28;19921;-76
2021/09/23 04:56:34;;;;;;;;;;;13.20;99.90;;;;;;5057488;28;19909;-79
2021/09/23 04:59:00;;;;;;;;;;;13.20;99.90;;;;;;5056702;28;19908;-77
2021/09/23 05:01:26;;;;;;;;;;;13.30;99.90;;;;;;5056690;28;19977;-77
2021/09/23 05:03:52;;;;;;;;;;;13.30;99.90;;;;;;5054501;28;19917;-77
2021/09/23 05:06:17;;;;;;;;;;;13.20;99.90;;;;;;5054337;28;19920;-73
2021/09/23 05:08:43;;;;;;;;;;;13.20;99.90;;;;;;5051278;28;19909;-77
2021/09/23 05:11:08;;;;;;;;;;;13.20;99.90;;;;;;5051212;28;20319;-77
2021/09/23 05:13:34;;;;;;;;;;;13.20;99.90;;;;;;5056382;28;19971;-77
2021/09/23 05:16:00;;;;;;;;;;;13.20;99.90;;;;;;5052935;28;19913;-77
2021/09/23 05:18:25;;;;;;;;;;;13.20;99.90;;;;;;5056265;28;19952;-77
2021/09/23 05:20:51;;;;;;;;;;;13.20;99.90;;;;;;5036001;28;19923;-77
2021/09/23 05:23:17;;;;;;;;;;;13.20;99.90;;;;;;5053717;28;19936;-78
2021/09/23 05:25:42;;;;;;;;;;;13.20;99.90;;;;;;5051523;28;19921;-77
2021/09/23 05:28:08;;;;;;;;;;;13.20;99.90;;;;;;5039251;28;19995;-77
2021/09/23 05:30:34;;;;;;;;;;;13.20;99.90;;;;;;5056163;28;19919;-77
2021/09/23 05:32:59;;;;;;;;;;;13.30;99.90;;;;;;5048964;28;19966;-78
2021/09/23 05:35:25;;;;;;;;;;;13.30;99.90;;;;;;5056015;28;20306;-77
2021/09/23 05:37:51;;;;;;;;;;;13.30;99.90;;;;;;5056539;28;20224;-76
2021/09/23 05:40:16;;;;;;;;;;;13.40;99.90;;;;;;5052383;28;21445;-78
2021/09/23 05:42:42;;;;;;;;;;;13.40;99.90;;;;;;5054871;28;19926;-77
2021/09/23 05:45:10;;;;;;;;;;;13.40;99.90;;;;;;5056256;28;20369;-77
2021/09/23 05:47:37;;;;;;;;;;;13.40;99.90;;;;;;5063727;28;19924;-78
2021/09/23 05:50:03;;;;;;;;;;;13.50;99.90;;;;;;5061369;28;20312;-77
2021/09/23 05:52:28;;;;;;;;;;;13.50;99.90;;;;;;5063348;28;19916;-80
2021/09/23 05:54:54;;;;;;;;;;;13.60;99.90;;;;;;5061575;28;19963;-77
2021/09/23 05:57:22;;;;;;;;;;;13.70;99.90;;;;;;5065107;28;20200;-77
2021/09/23 05:59:48;;;;;;;;;;;13.70;99.90;;;;;;5047231;28;19917;-77
2021/09/23 06:02:15;;;;;;;;;;;13.80;99.90;;;;;;5044260;28;19934;-78
2021/09/23 06:04:40;;;;;;;;;;;13.80;99.90;;;;;;5065439;28;19920;-77
2021/09/23 06:07:07;;;;;;;;;;;13.80;99.90;;;;;;5066090;28;19913;-77
2021/09/23 06:09:32;;;;;;;;;;;13.90;99.90;;;;;;5061349;28;19917;-78
2021/09/23 06:11:58;;;;;;;;;;;13.90;99.90;;;;;;5058791;28;19920;-77
2021/09/23 06:14:24;;;;;;;;;;;13.90;99.90;;;;;;5061198;28;19912;-78
2021/09/23 06:16:49;;;;;;;;;;;13.90;99.90;;;;;;5036604;28;20314;-77
2021/09/23 06:19:15;;;;;;;;;;;13.90;99.90;;;;;;5059722;28;20003;-78
2021/09/23 06:21:41;;;;;;;;;;;14.00;99.90;;;;;;5056745;28;19979;-78
2021/09/23 06:24:06;;;;;;;;;;;13.90;99.90;;;;;;5061958;28;19928;-78
2021/09/23 06:26:32;;;;;;;;;;;14.00;99.90;;;;;;5064250;28;19920;-78
2021/09/23 06:28:58;;;;;;;;;;;14.00;99.90;;;;;;5061576;28;20025;-74
2021/09/23 06:31:23;;;;;;;;;;;14.00;99.90;;;;;;5051977;28;19921;-78
2021/09/23 06:33:49;;;;;;;;;;;14.00;99.90;;;;;;5055671;28;19921;-77
2021/09/23 06:36:15;;;;;;;;;;;14.00;99.90;;;;;;5054744;28;19913;-78
2021/09/23 06:38:40;;;;;;;;;;;14.00;99.90;;;;;;5034744;28;20315;-78
2021/09/23 06:41:10;;;;;;;;;;;14.10;99.90;;;;;;5062331;28;19943;-78
2021/09/23 06:43:35;;;;;;;;;;;14.10;99.90;;;;;;5043007;28;19913;-78
2021/09/23 06:46:01;;;;;;;;;;;14.10;99.90;;;;;;5042644;28;20337;-78
2021/09/23 06:48:26;;;;;;;;;;;14.20;99.90;;;;;;5063179;28;19921;-78
2021/09/23 06:50:52;;;;;;;;;;;14.20;99.90;;;;;;5064165;28;19999;-78
2021/09/23 06:53:17;;;;;;;;;;;14.20;99.90;;;;;;5063998;28;20237;-75
2021/09/23 06:55:43;;;;;;;;;;;14.20;99.90;;;;;;5063206;28;19919;-78
2021/09/23 06:58:09;;;;;;;;;;;14.30;99.90;;;;;;5063440;28;19925;-78
2021/09/23 07:00:34;;;;;;;;;;;14.50;99.90;;;;;;5063843;28;19912;-78
2021/09/23 07:03:00;;;;;;;;;;;14.70;99.90;;;;;;5048381;28;20288;-78
2021/09/23 07:05:26;;;;;;;;;;;15.00;99.90;;;;;;5060563;28;20218;-78
2021/09/23 07:07:51;;;;;;;;;;;15.50;99.90;;;;;;5062041;28;19920;-78
2021/09/23 07:10:17;;;;;;;;;;;15.70;99.90;;;;;;5042222;28;19975;-78
2021/09/23 07:12:42;;;;;;;;;;;16.00;99.90;;;;;;5057696;28;19912;-78
2021/09/23 07:15:08;;;;;;;;;;;16.20;99.90;;;;;;5043936;28;19919;-79
2021/09/23 07:17:35;;;;;;;;;;;16.20;99.90;;;;;;5063181;28;19935;-78
2021/09/23 07:20:01;;;;;;;;;;;16.40;99.90;;;;;;5064067;28;19921;-78
2021/09/23 07:22:26;;;;;;;;;;;16.60;99.90;;;;;;5060685;28;19950;-79
2021/09/23 07:24:52;;;;;;;;;;;16.90;99.90;;;;;;5061909;28;20272;-78
2021/09/23 07:27:17;;;;;;;;;;;17.30;99.90;;;;;;5061460;28;19920;-74
2021/09/23 07:29:43;;;;;;;;;;;17.70;99.90;;;;;;5062713;28;19920;-77
2021/09/23 07:32:10;;;;;;;;;;;18.00;99.90;;;;;;5045255;28;20277;-79
2021/09/23 07:34:36;;;;;;;;;;;18.20;99.90;;;;;;5063023;28;19912;-78
2021/09/23 07:37:04;;;;;;;;;;;18.30;99.90;;;;;;5060494;28;19932;-78
2021/09/23 07:39:29;;;;;;;;;;;18.50;99.90;;;;;;5063196;28;19919;-78
2021/09/23 07:41:55;;;;;;;;;;;18.50;99.90;;;;;;5063891;28;20294;-79
2021/09/23 07:44:22;;;;;;;;;;;18.60;99.90;;;;;;5062974;28;19916;-78
2021/09/23 07:46:48;;;;;;;;;;;18.80;99.90;;;;;;5041009;28;19920;-75
2021/09/23 07:49:13;;;;;;;;;;;18.80;99.90;;;;;;5042616;28;19912;-79
2021/09/23 07:51:39;;;;;;;;;;;18.70;99.90;;;;;;5062212;28;19913;-78
2021/09/23 07:54:05;;;;;;;;;;;18.70;99.90;;;;;;5064064;28;19913;-78
2021/09/23 07:56:30;;;;;;;;;;;18.90;99.90;;;;;;5063220;28;19917;-79
2021/09/23 07:58:56;;;;;;;;;;;18.90;99.90;;;;;;5062687;28;19965;-78
2021/09/23 08:01:22;;;;;;;;;;;18.70;99.90;;;;;;5054940;28;19924;-79
2021/09/23 08:03:48;;;;;;;;;;;18.50;99.90;;;;;;5038652;28;19920;-78
2021/09/23 08:06:14;;;;;;;;;;;18.30;99.90;;;;;;5037976;28;19917;-78
2021/09/23 08:08:39;;;;;;;;;;;18.20;99.90;;;;;;5042512;28;19932;-81
2021/09/23 08:11:05;;;;;;;;;;;18.00;99.90;;;;;;5048956;28;19912;-81
2021/09/23 08:13:30;;;;;;;;;;;17.90;99.90;;;;;;5036394;28;19923;-78
2021/09/23 08:15:56;;;;;;;;;;;17.70;99.90;;;;;;5052125;28;19913;-79
2021/09/23 08:18:22;;;;;;;;;;;17.60;99.90;;;;;;5057882;28;19909;-85
2021/09/23 08:20:48;;;;;;;;;;;17.40;99.90;;;;;;5035167;28;19936;-75
2021/09/23 08:23:14;;;;;;;;;;;17.30;99.90;;;;;;5066971;28;20307;-84
2021/09/23 08:25:39;;;;;;;;;;;17.30;99.90;;;;;;5068452;28;19916;-88
2021/09/23 08:28:07;;;;;;;;;;;17.20;99.90;;;;;;5048711;28;19922;-83
2021/09/23 08:30:33;;;;;;;;;;;17.10;99.90;;;;;;5066475;28;20049;-82
2021/09/23 08:32:59;;;;;;;;;;;17.10;99.90;;;;;;5067342;28;19919;-83
2021/09/23 08:35:24;;;;;;;;;;;17.10;99.90;;;;;;5067151;28;19913;-81
2021/09/23 08:37:50;;;;;;;;;;;17.20;99.90;;;;;;5063479;28;19928;-81
2021/09/23 08:40:15;;;;;;;;;;;17.20;99.90;;;;;;5068989;28;20254;-75
2021/09/23 08:42:45;;;;;;;;;;;17.20;99.90;;;;;;5037390;28;19921;-82
2021/09/23 08:45:12;;;;;;;;;;;17.20;99.90;;;;;;5044923;28;20001;-88
2021/09/23 08:47:37;;;;;;;;;;;17.30;99.90;;;;;;5064449;28;19928;-79
2021/09/23 08:50:05;;;;;;;;;;;17.40;99.90;;;;;;5041836;28;19920;-88
2021/09/23 08:52:30;;;;;;;;;;;17.50;99.90;;;;;;5069312;28;19963;-84
2021/09/23 08:54:56;;;;;;;;;;;17.60;99.90;;;;;;5070985;28;19952;-85
2021/09/23 08:57:22;;;;;;;;;;;17.70;99.90;;;;;;5066318;28;19913;-84
2021/09/23 08:59:48;;;;;;;;;;;17.80;99.90;;;;;;5063535;28;19920;-80
2021/09/23 09:02:21;;;;;;;;;;;17.80;99.90;;;;;;5047067;28;19920;-91
2021/09/23 09:04:50;;;;;;;;;;;17.80;99.90;;;;;;5047680;28;19923;-78
2021/09/23 09:07:19;;;;;;;;;;;17.90;99.90;;;;;;5061672;28;19912;-90
2021/09/23 09:09:45;;;;;;;;;;;18.00;99.90;;;;;;5053698;28;19963;-91
2021/09/23 09:12:12;;;;;;;;;;;18.30;99.90;;;;;;5038104;28;19920;-85
2021/09/23 09:14:39;;;;;;;;;;;18.40;99.90;;;;;;5065419;28;20397;-85
2021/09/23 09:17:06;;;;;;;;;;;18.50;99.90;;;;;;5037152;28;19913;-79
2021/09/23 09:19:48;;;;;;;;;;;18.40;99.90;;;;;;5054926;28;20387;-77
2021/09/23 09:22:19;;;;;;;;;;;18.30;99.90;;;;;;5056526;28;20383;-87
2021/09/23 09:24:51;;;;;;;;;;;18.20;99.90;;;;;;5036213;28;19963;-85
2021/09/23 09:27:26;;;;;;;;;;;18.10;99.90;;;;;;5040188;28;19909;-89
2021/09/23 09:29:59;;;;;;;;;;;18.20;99.90;;;;;;5054671;28;19916;-77
2021/09/23 09:32:39;;;;;;;;;;;18.20;99.90;;;;;;5038763;28;20268;-76
2021/09/23 09:35:06;;;;;;;;;;;18.20;99.90;;;;;;5055168;28;19955;-87
2021/09/23 09:37:32;;;;;;;;;;;18.20;99.90;;;;;;5052797;28;19909;-79
2021/09/23 09:39:58;;;;;;;;;;;18.20;99.90;;;;;;5062755;28;19921;-75
2021/09/23 09:42:25;;;;;;;;;;;18.10;99.90;;;;;;5059948;28;20330;-79
2021/09/23 09:44:55;;;;;;;;;;;18.00;99.90;;;;;;5042298;28;19975;-75
2021/09/23 09:47:33;;;;;;;;;;;18.00;99.90;;;;;;5060831;28;20338;-88
2021/09/23 09:50:09;;;;;;;;;;;17.90;99.90;;;;;;5043637;28;19921;-78
2021/09/23 09:52:34;;;;;;;;;;;17.90;99.90;;;;;;5057516;28;19948;-75
2021/09/23 09:55:08;;;;;;;;;;;17.80;99.90;;;;;;5060781;28;19995;-79
2021/09/23 09:57:34;;;;;;;;;;;17.80;99.90;;;;;;5063128;28;19923;-90
2021/09/23 09:59:59;;;;;;;;;;;17.80;99.90;;;;;;5060682;28;19920;-78
2021/09/23 10:02:28;;;;;;;;;;;17.90;99.90;;;;;;5061714;28;20208;-81
2021/09/23 10:04:58;;;;;;;;;;;17.90;99.90;;;;;;5052290;28;19939;-86
2021/09/23 10:07:26;;;;;;;;;;;17.90;99.90;;;;;;5055579;28;19917;-82
2021/09/23 10:09:53;;;;;;;;;;;17.90;99.90;;;;;;5047261;28;19923;-78
2021/09/23 10:12:20;;;;;;;;;;;18.00;99.90;;;;;;5046928;28;19935;-76
2021/09/23 10:14:46;;;;;;;;;;;18.10;99.90;;;;;;5048895;28;19913;-88
2021/09/23 10:17:13;;;;;;;;;;;18.20;99.90;;;;;;5050097;28;19913;-81
2021/09/23 10:19:40;;;;;;;;;;;18.30;99.90;;;;;;5057492;28;19912;-80
2021/09/23 10:22:06;;;;;;;;;;;18.40;99.90;;;;;;5037330;28;19978;-76
2021/09/23 10:24:32;;;;;;;;;;;18.30;99.90;;;;;;5045252;28;19917;-84
2021/09/23 10:26:58;;;;;;;;;;;18.40;99.90;;;;;;5045197;28;19919;-76
2021/09/23 10:29:24;;;;;;;;;;;18.60;99.90;;;;;;5044592;28;19916;-80
2021/09/23 10:31:56;;;;;;;;;;;18.70;99.90;;;;;;5051045;28;20000;-75
2021/09/23 10:34:21;;;;;;;;;;;18.90;99.90;;;;;;5042084;28;20313;-78
2021/09/23 10:36:47;;;;;;;;;;;18.80;99.90;;;;;;5039826;28;19912;-79
2021/09/23 10:39:16;;;;;;;;;;;18.80;99.90;;;;;;5054149;28;19919;-86
2021/09/23 10:41:44;;;;;;;;;;;19.10;99.90;;;;;;5052310;28;20396;-79
2021/09/23 10:44:11;;;;;;;;;;;19.20;99.90;;;;;;5047366;28;19940;-77
2021/09/23 10:46:37;;;;;;;;;;;19.30;99.90;;;;;;5027588;28;20015;-77
2021/09/23 10:49:04;;;;;;;;;;;19.30;99.90;;;;;;5043468;28;20264;-84
2021/09/23 10:51:31;;;;;;;;;;;19.30;99.90;;;;;;5052436;28;19971;-91
2021/09/23 10:53:59;;;;;;;;;;;19.20;99.90;;;;;;5050661;28;19913;-85
2021/09/23 10:56:26;;;;;;;;;;;19.20;99.90;;;;;;5050298;28;19944;-83
2021/09/23 10:58:52;;;;;;;;;;;19.20;99.90;;;;;;5055551;28;19920;-87
2021/09/23 11:01:32;;;;;;;;;;;19.20;99.90;;;;;;5040087;28;20308;-83
2021/09/23 11:03:59;;;;;;;;;;;19.20;99.90;;;;;;5065364;28;20257;-77
2021/09/23 11:06:33;;;;;;;;;;;19.30;99.90;;;;;;5066997;28;20410;-86
2021/09/23 11:09:14;;;;;;;;;;;19.40;99.90;;;;;;5048179;28;19919;-85
2021/09/23 11:11:39;;;;;;;;;;;19.30;99.90;;;;;;5064242;28;19916;-86
2021/09/23 11:14:06;;;;;;;;;;;19.30;99.90;;;;;;5059483;28;20042;-90
2021/09/23 11:16:31;;;;;;;;;;;19.10;99.90;;;;;;5063794;28;20308;-92
2021/09/23 11:18:57;;;;;;;;;;;19.10;99.90;;;;;;5045580;28;19919;-81
2021/09/23 11:21:24;;;;;;;;;;;19.20;99.90;;;;;;5065581;28;19913;-83
2021/09/23 11:23:49;;;;;;;;;;;19.30;99.90;;;;;;5058777;28;20012;-85
2021/09/23 11:26:15;;;;;;;;;;;19.40;99.90;;;;;;5059409;28;19999;-87
2021/09/23 11:28:40;;;;;;;;;;;19.50;99.90;;;;;;5064103;28;19917;-83
2021/09/23 11:31:06;;;;;;;;;;;19.50;99.90;;;;;;5063239;28;19923;-89
2021/09/23 11:33:32;;;;;;;;;;;19.40;99.90;;;;;;5063299;28;19977;-78
2021/09/23 11:35:57;;;;;;;;;;;19.30;99.90;;;;;;5060242;28;20313;-79
2021/09/23 11:38:24;;;;;;;;;;;19.30;99.90;;;;;;5069198;28;19912;-81
2021/09/23 11:40:51;;;;;;;;;;;19.20;99.90;;;;;;5068855;28;19967;-77
2021/09/23 11:43:18;;;;;;;;;;;19.10;99.90;;;;;;5046075;28;19939;-83
2021/09/23 11:45:45;;;;;;;;;;;19.00;99.90;;;;;;5066841;28;20363;-85
2021/09/23 11:48:12;;;;;;;;;;;18.90;99.90;;;;;;5062176;28;19912;-88
2021/09/23 11:50:48;;;;;;;;;;;18.80;99.90;;;;;;5068604;28;19930;-76
2021/09/23 11:53:14;;;;;;;;;;;18.80;99.90;;;;;;5040681;28;19919;-89
2021/09/23 11:55:41;;;;;;;;;;;18.70;99.90;;;;;;5065060;28;19913;-86
2021/09/23 11:58:12;;;;;;;;;;;18.60;99.90;;;;;;5045433;28;20254;-76
2021/09/23 12:00:39;;;;;;;;;;;18.50;99.90;;;;;;5072221;28;19940;-86
2021/09/23 12:03:05;;;;;;;;;;;18.50;99.90;;;;;;5067552;28;19912;-75
2021/09/23 12:05:31;;;;;;;;;;;18.40;99.90;;;;;;5065255;28;20307;-87
2021/09/23 12:08:04;;;;;;;;;;;18.40;99.90;;;;;;5050380;28;19920;-92
2021/09/23 12:10:30;;;;;;;;;;;18.30;99.90;;;;;;5063985;28;19975;-86
2021/09/23 12:12:57;;;;;;;;;;;18.30;99.90;;;;;;5043912;28;20315;-86
2021/09/23 12:15:23;;;;;;;;;;;18.20;99.90;;;;;;5068121;28;19963;-91
2021/09/23 12:17:56;;;;;;;;;;;18.20;99.90;;;;;;5069864;28;19913;-84
2021/09/23 12:20:36;;;;;;;;;;;18.20;99.90;;;;;;5067748;28;19919;-90
2021/09/23 12:23:17;;;;;;;;;;;18.30;99.90;;;;;;5065966;28;20342;-81
2021/09/23 12:25:43;;;;;;;;;;;18.30;99.90;;;;;;5066391;28;19920;-87
2021/09/23 12:28:08;;;;;;;;;;;18.50;99.90;;;;;;5066194;28;19928;-76
2021/09/23 12:30:36;;;;;;;;;;;18.60;99.90;;;;;;5047433;28;19920;-85
2021/09/23 12:33:03;;;;;;;;;;;18.70;99.90;;;;;;5048405;28;19919;-84
2021/09/23 12:35:28;;;;;;;;;;;18.70;99.90;;;;;;5047859;28;19921;-89
2021/09/23 12:37:54;;;;;;;;;;;18.70;99.90;;;;;;5067707;28;20222;-82
2021/09/23 12:40:20;;;;;;;;;;;18.70;99.90;;;;;;5066183;28;19999;-89
2021/09/23 12:42:45;;;;;;;;;;;18.70;99.90;;;;;;5067749;28;19913;-88
2021/09/23 12:45:12;;;;;;;;;;;18.70;99.90;;;;;;5060401;28;19928;-93
2021/09/23 12:47:46;;;;;;;;;;;18.70;99.90;;;;;;5060052;28;20020;-82
2021/09/23 12:50:12;;;;;;;;;;;18.70;99.90;;;;;;5055591;28;19917;-88
2021/09/23 12:52:39;;;;;;;;;;;18.70;99.90;;;;;;5053619;28;19913;-86
2021/09/23 12:55:06;;;;;;;;;;;18.80;99.90;;;;;;5052785;28;19993;-86
2021/09/23 12:57:33;;;;;;;;;;;18.80;99.90;;;;;;5050622;28;20215;-82
2021/09/23 13:00:13;;;;;;;;;;;18.80;99.90;;;;;;5034535;28;19908;-91
2021/09/23 13:02:40;;;;;;;;;;;18.80;99.90;;;;;;5049409;28;19916;-78
2021/09/23 13:05:10;;;;;;;;;;;18.80;99.90;;;;;;5054111;28;19916;-83
2021/09/23 13:07:38;;;;;;;;;;;18.80;99.90;;;;;;5056415;28;19920;-81
2021/09/23 13:10:08;;;;;;;;;;;18.80;99.90;;;;;;5056414;28;19919;-79
2021/09/23 13:12:38;;;;;;;;;;;18.70;99.90;;;;;;5051736;28;19951;-77
2021/09/23 13:15:14;;;;;;;;;;;18.80;99.90;;;;;;5062779;28;19920;-86
2021/09/23 13:17:39;;;;;;;;;;;18.80;99.90;;;;;;5060885;28;19912;-83
2021/09/23 13:20:05;;;;;;;;;;;18.80;99.90;;;;;;5060175;28;20309;-77
2021/09/23 13:22:32;;;;;;;;;;;18.80;99.90;;;;;;5035986;28;19975;-90
2021/09/23 13:24:58;;;;;;;;;;;18.80;99.90;;;;;;5058851;28;19956;-77
2021/09/23 13:27:23;;;;;;;;;;;18.80;99.90;;;;;;5037350;28;19963;-82
2021/09/23 13:29:49;;;;;;;;;;;18.80;99.90;;;;;;5055888;28;20517;-83
2021/09/23 13:32:15;;;;;;;;;;;18.70;99.90;;;;;;5053259;28;19917;-91
2021/09/23 13:34:41;;;;;;;;;;;18.70;99.90;;;;;;5059448;28;19917;-86
2021/09/23 13:37:06;;;;;;;;;;;18.70;99.90;;;;;;5052465;28;20019;-76
2021/09/23 13:39:32;;;;;;;;;;;18.60;99.90;;;;;;5059630;28;19978;-81
2021/09/23 13:41:58;;;;;;;;;;;18.60;99.90;;;;;;5041638;28;19920;-76
2021/09/23 13:44:23;;;;;;;;;;;18.60;99.90;;;;;;5041339;28;20414;-81
2021/09/23 13:46:49;;;;;;;;;;;18.70;99.90;;;;;;5057896;28;19959;-76
2021/09/23 13:49:15;;;;;;;;;;;18.70;99.90;;;;;;5057280;28;20749;-77
2021/09/23 13:51:40;;;;;;;;;;;18.70;99.90;;;;;;5037557;28;19993;-77
2021/09/23 13:54:07;;;;;;;;;;;18.80;99.90;;;;;;5054142;28;19913;-82
2021/09/23 13:56:32;;;;;;;;;;;18.80;99.90;;;;;;5047442;28;19943;-77
2021/09/23 13:58:58;;;;;;;;;;;18.70;99.90;;;;;;5047585;28;20307;-79
2021/09/23 14:01:24;;;;;;;;;;;18.80;99.90;;;;;;5053485;28;19916;-80
2021/09/23 14:03:49;;;;;;;;;;;18.80;99.90;;;;;;5035937;28;19974;-77
2021/09/23 14:06:15;;;;;;;;;;;18.80;99.90;;;;;;5021690;28;20355;-76
2021/09/23 14:08:41;;;;;;;;;;;18.80;99.90;;;;;;5055449;28;19934;-80
2021/09/23 14:11:06;;;;;;;;;;;18.80;99.90;;;;;;5052809;28;19917;-76
2021/09/23 14:13:32;;;;;;;;;;;18.80;99.90;;;;;;5054836;28;19916;-75